sensor_id;sensor_type;location;lat;lon;timestamp;P1;durP1;ratioP1;P2;durP2;ratioP2
33553;SDS011;19885;42.208;24.952;2022-09-13T00:00:39;3.20;;;2.50;;
33553;SDS011;19885;42.208;24.952;2022-09-13T00:03:05;2.70;;;2.50;;
33553;SDS011;19885;42.208;24.952;2022-09-13T00:05:32;3.20;;;2.90;;
33553;SDS011;19885;42.208;24.952;2022-09-13T00:07:59;3.97;;;3.20;;
33553;SDS011;19885;42.208;24.952;2022-09-13T00:10:24;4.03;;;3.33;;
33553;SDS011;19885;42.208;24.952;2022-09-13T00:12:51;3.77;;;3.47;;
33553;SDS011;19885;42.208;24.952;2022-09-13T00:15:17;3.17;;;2.87;;
33553;SDS011;19885;42.208;24.952;2022-09-13T00:17:43;6.33;;;3.40;;
33553;SDS011;19885;42.208;24.952;2022-09-13T00:20:09;3.60;;;3.20;;
33553;SDS011;19885;42.208;24.952;2022-09-13T00:22:35;3.70;;;3.13;;
33553;SDS011;19885;42.208;24.952;2022-09-13T00:25:02;7.07;;;3.43;;
33553;SDS011;19885;42.208;24.952;2022-09-13T00:27:28;3.00;;;2.70;;
33553;SDS011;19885;42.208;24.952;2022-09-13T00:29:53;6.10;;;3.80;;
33553;SDS011;19885;42.208;24.952;2022-09-13T00:32:19;4.07;;;3.00;;
33553;SDS011;19885;42.208;24.952;2022-09-13T00:34:44;4.17;;;3.17;;
33553;SDS011;19885;42.208;24.952;2022-09-13T00:37:10;4.17;;;3.43;;
33553;SDS011;19885;42.208;24.952;2022-09-13T00:39:35;3.77;;;3.00;;
33553;SDS011;19885;42.208;24.952;2022-09-13T00:42:01;5.53;;;3.50;;
33553;SDS011;19885;42.208;24.952;2022-09-13T00:47:14;5.87;;;2.80;;
33553;SDS011;19885;42.208;24.952;2022-09-13T00:49:47;3.03;;;2.50;;
33553;SDS011;19885;42.208;24.952;2022-09-13T00:52:17;3.23;;;2.93;;
33553;SDS011;19885;42.208;24.952;2022-09-13T00:54:51;5.73;;;2.90;;
33553;SDS011;19885;42.208;24.952;2022-09-13T00:57:24;5.30;;;2.80;;
33553;SDS011;19885;42.208;24.952;2022-09-13T01:00:10;3.93;;;3.03;;
33553;SDS011;19885;42.208;24.952;2022-09-13T01:02:41;3.57;;;2.43;;
33553;SDS011;19885;42.208;24.952;2022-09-13T01:05:12;3.20;;;2.90;;
33553;SDS011;19885;42.208;24.952;2022-09-13T01:07:41;3.30;;;2.73;;
33553;SDS011;19885;42.208;24.952;2022-09-13T01:10:06;4.20;;;3.07;;
33553;SDS011;19885;42.208;24.952;2022-09-13T01:15:07;3.33;;;3.03;;
33553;SDS011;19885;42.208;24.952;2022-09-13T01:17:33;3.63;;;2.87;;
33553;SDS011;19885;42.208;24.952;2022-09-13T01:20:00;4.03;;;3.63;;
33553;SDS011;19885;42.208;24.952;2022-09-13T01:39:17;2.97;;;2.67;;
33553;SDS011;19885;42.208;24.952;2022-09-13T01:42:00;4.07;;;3.63;;
33553;SDS011;19885;42.208;24.952;2022-09-13T01:49:57;3.30;;;3.00;;
33553;SDS011;19885;42.208;24.952;2022-09-13T01:57:48;3.07;;;2.77;;
33553;SDS011;19885;42.208;24.952;2022-09-13T02:00:21;3.20;;;2.87;;
33553;SDS011;19885;42.208;24.952;2022-09-13T02:08:15;3.63;;;2.43;;
33553;SDS011;19885;42.208;24.952;2022-09-13T02:13:31;3.23;;;2.90;;
33553;SDS011;19885;42.208;24.952;2022-09-13T02:16:05;3.97;;;3.33;;
33553;SDS011;19885;42.208;24.952;2022-09-13T02:18:46;3.07;;;2.77;;
33553;SDS011;19885;42.208;24.952;2022-09-13T02:21:22;3.23;;;2.93;;
33553;SDS011;19885;42.208;24.952;2022-09-13T02:23:53;3.87;;;3.00;;
33553;SDS011;19885;42.208;24.952;2022-09-13T02:26:25;3.73;;;3.00;;
33553;SDS011;19885;42.208;24.952;2022-09-13T02:28:53;4.07;;;3.27;;
33553;SDS011;19885;42.208;24.952;2022-09-13T02:31:27;3.90;;;2.60;;
33553;SDS011;19885;42.208;24.952;2022-09-13T02:33:59;4.63;;;3.10;;
33553;SDS011;19885;42.208;24.952;2022-09-13T02:36:30;3.57;;;3.27;;
33553;SDS011;19885;42.208;24.952;2022-09-13T02:39:04;4.13;;;3.00;;
33553;SDS011;19885;42.208;24.952;2022-09-13T02:44:16;2.80;;;2.53;;
33553;SDS011;19885;42.208;24.952;2022-09-13T02:54:57;3.47;;;2.33;;
33553;SDS011;19885;42.208;24.952;2022-09-13T02:57:31;2.90;;;2.37;;
33553;SDS011;19885;42.208;24.952;2022-09-13T03:00:07;3.80;;;2.77;;
33553;SDS011;19885;42.208;24.952;2022-09-13T03:02:34;3.23;;;2.77;;
33553;SDS011;19885;42.208;24.952;2022-09-13T03:05:02;2.63;;;2.40;;
33553;SDS011;19885;42.208;24.952;2022-09-13T03:07:30;7.93;;;3.70;;
33553;SDS011;19885;42.208;24.952;2022-09-13T03:10:06;3.90;;;2.53;;
33553;SDS011;19885;42.208;24.952;2022-09-13T03:12:59;3.80;;;3.03;;
33553;SDS011;19885;42.208;24.952;2022-09-13T03:21:03;5.75;;;2.83;;
33553;SDS011;19885;42.208;24.952;2022-09-13T03:28:55;2.60;;;2.40;;
33553;SDS011;19885;42.208;24.952;2022-09-13T03:31:34;5.40;;;2.53;;
33553;SDS011;19885;42.208;24.952;2022-09-13T03:37:24;3.27;;;2.97;;
33553;SDS011;19885;42.208;24.952;2022-09-13T03:40:56;4.87;;;2.27;;
33553;SDS011;19885;42.208;24.952;2022-09-13T03:43:17;3.93;;;3.07;;
33553;SDS011;19885;42.208;24.952;2022-09-13T03:45:50;4.90;;;2.60;;
33553;SDS011;19885;42.208;24.952;2022-09-13T03:48:19;3.22;;;2.88;;
33553;SDS011;19885;42.208;24.952;2022-09-13T03:50:47;4.67;;;2.57;;
33553;SDS011;19885;42.208;24.952;2022-09-13T03:53:14;6.07;;;3.00;;
33553;SDS011;19885;42.208;24.952;2022-09-13T03:55:45;4.37;;;2.03;;
33553;SDS011;19885;42.208;24.952;2022-09-13T03:58:11;3.87;;;2.30;;
33553;SDS011;19885;42.208;24.952;2022-09-13T04:00:39;4.10;;;2.57;;
33553;SDS011;19885;42.208;24.952;2022-09-13T04:03:05;4.23;;;2.40;;
33553;SDS011;19885;42.208;24.952;2022-09-13T04:05:31;3.47;;;2.50;;
33553;SDS011;19885;42.208;24.952;2022-09-13T04:07:58;3.07;;;2.77;;
33553;SDS011;19885;42.208;24.952;2022-09-13T04:10:26;4.53;;;2.17;;
33553;SDS011;19885;42.208;24.952;2022-09-13T04:12:52;6.97;;;3.13;;
33553;SDS011;19885;42.208;24.952;2022-09-13T04:15:18;2.67;;;2.47;;
33553;SDS011;19885;42.208;24.952;2022-09-13T04:17:44;4.23;;;2.53;;
33553;SDS011;19885;42.208;24.952;2022-09-13T04:20:09;4.73;;;3.00;;
33553;SDS011;19885;42.208;24.952;2022-09-13T04:22:35;6.73;;;2.80;;
33553;SDS011;19885;42.208;24.952;2022-09-13T04:25:01;2.23;;;2.10;;
33553;SDS011;19885;42.208;24.952;2022-09-13T04:27:26;4.63;;;2.53;;
33553;SDS011;19885;42.208;24.952;2022-09-13T04:29:51;8.87;;;2.77;;
33553;SDS011;19885;42.208;24.952;2022-09-13T04:32:17;9.10;;;3.07;;
33553;SDS011;19885;42.208;24.952;2022-09-13T04:34:42;3.53;;;2.27;;
33553;SDS011;19885;42.208;24.952;2022-09-13T04:37:08;2.77;;;2.50;;
33553;SDS011;19885;42.208;24.952;2022-09-13T04:39:34;3.03;;;2.23;;
33553;SDS011;19885;42.208;24.952;2022-09-13T04:41:59;2.37;;;2.17;;
33553;SDS011;19885;42.208;24.952;2022-09-13T04:44:26;3.20;;;2.80;;
33553;SDS011;19885;42.208;24.952;2022-09-13T04:46:51;3.17;;;2.50;;
33553;SDS011;19885;42.208;24.952;2022-09-13T04:49:17;4.80;;;2.93;;
33553;SDS011;19885;42.208;24.952;2022-09-13T04:51:44;3.57;;;2.63;;
33553;SDS011;19885;42.208;24.952;2022-09-13T04:54:10;4.17;;;2.70;;
33553;SDS011;19885;42.208;24.952;2022-09-13T04:56:35;3.97;;;2.80;;
33553;SDS011;19885;42.208;24.952;2022-09-13T04:59:01;3.33;;;2.90;;
33553;SDS011;19885;42.208;24.952;2022-09-13T05:01:26;3.40;;;3.10;;
33553;SDS011;19885;42.208;24.952;2022-09-13T05:03:54;3.83;;;2.70;;
33553;SDS011;19885;42.208;24.952;2022-09-13T05:06:20;10.23;;;3.00;;
33553;SDS011;19885;42.208;24.952;2022-09-13T05:08:50;3.33;;;2.73;;
33553;SDS011;19885;42.208;24.952;2022-09-13T05:11:19;6.13;;;3.00;;
33553;SDS011;19885;42.208;24.952;2022-09-13T05:13:50;4.33;;;2.90;;
33553;SDS011;19885;42.208;24.952;2022-09-13T05:16:20;6.43;;;2.97;;
33553;SDS011;19885;42.208;24.952;2022-09-13T05:18:46;3.77;;;2.93;;
33553;SDS011;19885;42.208;24.952;2022-09-13T05:21:11;4.07;;;2.40;;
33553;SDS011;19885;42.208;24.952;2022-09-13T05:23:37;5.13;;;3.43;;
33553;SDS011;19885;42.208;24.952;2022-09-13T05:26:03;4.70;;;2.93;;
33553;SDS011;19885;42.208;24.952;2022-09-13T05:28:31;3.17;;;2.87;;
33553;SDS011;19885;42.208;24.952;2022-09-13T05:31:15;3.90;;;2.47;;
33553;SDS011;19885;42.208;24.952;2022-09-13T05:33:43;6.90;;;3.40;;
33553;SDS011;19885;42.208;24.952;2022-09-13T05:36:11;4.20;;;3.10;;
33553;SDS011;19885;42.208;24.952;2022-09-13T05:38:36;6.83;;;2.67;;
33553;SDS011;19885;42.208;24.952;2022-09-13T05:41:02;2.43;;;2.23;;
33553;SDS011;19885;42.208;24.952;2022-09-13T05:43:30;3.73;;;2.53;;
33553;SDS011;19885;42.208;24.952;2022-09-13T05:46:05;5.07;;;2.53;;
33553;SDS011;19885;42.208;24.952;2022-09-13T05:48:33;3.57;;;2.77;;
33553;SDS011;19885;42.208;24.952;2022-09-13T05:51:03;3.23;;;2.63;;
33553;SDS011;19885;42.208;24.952;2022-09-13T05:53:34;4.43;;;3.10;;
33553;SDS011;19885;42.208;24.952;2022-09-13T05:56:00;3.20;;;2.80;;
33553;SDS011;19885;42.208;24.952;2022-09-13T05:58:26;4.27;;;2.90;;
33553;SDS011;19885;42.208;24.952;2022-09-13T06:00:55;9.23;;;2.73;;
33553;SDS011;19885;42.208;24.952;2022-09-13T06:03:22;3.70;;;2.80;;
33553;SDS011;19885;42.208;24.952;2022-09-13T06:05:48;2.97;;;2.40;;
33553;SDS011;19885;42.208;24.952;2022-09-13T06:08:13;8.90;;;3.57;;
33553;SDS011;19885;42.208;24.952;2022-09-13T06:10:39;5.13;;;3.30;;
33553;SDS011;19885;42.208;24.952;2022-09-13T06:13:05;3.23;;;2.77;;
33553;SDS011;19885;42.208;24.952;2022-09-13T06:15:30;4.43;;;2.40;;
33553;SDS011;19885;42.208;24.952;2022-09-13T06:17:56;3.57;;;2.60;;
33553;SDS011;19885;42.208;24.952;2022-09-13T06:20:21;2.77;;;2.30;;
33553;SDS011;19885;42.208;24.952;2022-09-13T06:22:47;6.23;;;3.77;;
33553;SDS011;19885;42.208;24.952;2022-09-13T06:25:13;3.23;;;2.60;;
33553;SDS011;19885;42.208;24.952;2022-09-13T06:27:39;3.10;;;2.77;;
33553;SDS011;19885;42.208;24.952;2022-09-13T06:30:04;5.37;;;2.83;;
33553;SDS011;19885;42.208;24.952;2022-09-13T06:32:33;2.90;;;2.50;;
33553;SDS011;19885;42.208;24.952;2022-09-13T06:35:01;3.47;;;2.87;;
33553;SDS011;19885;42.208;24.952;2022-09-13T06:37:26;8.33;;;2.77;;
33553;SDS011;19885;42.208;24.952;2022-09-13T06:39:52;3.03;;;2.47;;
33553;SDS011;19885;42.208;24.952;2022-09-13T06:42:17;2.20;;;2.00;;
33553;SDS011;19885;42.208;24.952;2022-09-13T06:44:43;2.70;;;2.40;;
33553;SDS011;19885;42.208;24.952;2022-09-13T06:47:10;2.10;;;1.77;;
33553;SDS011;19885;42.208;24.952;2022-09-13T06:49:36;2.83;;;2.20;;
33553;SDS011;19885;42.208;24.952;2022-09-13T06:52:02;3.17;;;2.13;;
33553;SDS011;19885;42.208;24.952;2022-09-13T06:54:27;2.40;;;1.93;;
33553;SDS011;19885;42.208;24.952;2022-09-13T06:56:53;1.40;;;1.30;;
33553;SDS011;19885;42.208;24.952;2022-09-13T06:59:18;2.77;;;1.87;;
33553;SDS011;19885;42.208;24.952;2022-09-13T07:01:44;6.57;;;1.70;;
33553;SDS011;19885;42.208;24.952;2022-09-13T07:04:10;2.63;;;2.10;;
33553;SDS011;19885;42.208;24.952;2022-09-13T07:06:39;2.50;;;1.83;;
33553;SDS011;19885;42.208;24.952;2022-09-13T07:09:06;2.30;;;2.03;;
33553;SDS011;19885;42.208;24.952;2022-09-13T07:11:36;3.23;;;1.90;;
33553;SDS011;19885;42.208;24.952;2022-09-13T07:14:03;2.80;;;1.90;;
33553;SDS011;19885;42.208;24.952;2022-09-13T07:16:35;2.20;;;1.87;;
33553;SDS011;19885;42.208;24.952;2022-09-13T07:19:03;2.03;;;1.83;;
33553;SDS011;19885;42.208;24.952;2022-09-13T07:21:30;2.33;;;1.67;;
33553;SDS011;19885;42.208;24.952;2022-09-13T07:23:57;2.37;;;2.17;;
33553;SDS011;19885;42.208;24.952;2022-09-13T07:26:23;1.67;;;1.57;;
33553;SDS011;19885;42.208;24.952;2022-09-13T07:28:51;4.03;;;1.83;;
33553;SDS011;19885;42.208;24.952;2022-09-13T07:31:19;3.27;;;2.27;;
33553;SDS011;19885;42.208;24.952;2022-09-13T07:33:59;6.07;;;4.20;;
33553;SDS011;19885;42.208;24.952;2022-09-13T07:36:27;2.57;;;1.70;;
33553;SDS011;19885;42.208;24.952;2022-09-13T07:38:54;1.73;;;1.50;;
33553;SDS011;19885;42.208;24.952;2022-09-13T07:41:20;2.60;;;1.80;;
33553;SDS011;19885;42.208;24.952;2022-09-13T07:43:47;3.60;;;1.37;;
33553;SDS011;19885;42.208;24.952;2022-09-13T07:46:14;1.60;;;1.50;;
33553;SDS011;19885;42.208;24.952;2022-09-13T07:48:42;3.10;;;2.03;;
33553;SDS011;19885;42.208;24.952;2022-09-13T07:51:09;2.90;;;1.97;;
33553;SDS011;19885;42.208;24.952;2022-09-13T07:53:40;2.07;;;1.77;;
33553;SDS011;19885;42.208;24.952;2022-09-13T07:56:20;3.63;;;2.33;;
33553;SDS011;19885;42.208;24.952;2022-09-13T07:58:47;4.30;;;1.40;;
33553;SDS011;19885;42.208;24.952;2022-09-13T08:03:56;5.00;;;1.60;;
33553;SDS011;19885;42.208;24.952;2022-09-13T08:06:25;1.47;;;1.33;;
33553;SDS011;19885;42.208;24.952;2022-09-13T08:08:52;2.10;;;1.57;;
33553;SDS011;19885;42.208;24.952;2022-09-13T08:11:21;1.60;;;1.50;;
33553;SDS011;19885;42.208;24.952;2022-09-13T08:13:49;5.30;;;2.00;;
33553;SDS011;19885;42.208;24.952;2022-09-13T08:16:16;3.77;;;1.27;;
33553;SDS011;19885;42.208;24.952;2022-09-13T08:18:43;1.80;;;1.40;;
33553;SDS011;19885;42.208;24.952;2022-09-13T08:21:10;1.65;;;1.27;;
33553;SDS011;19885;42.208;24.952;2022-09-13T08:23:35;1.35;;;1.00;;
33553;SDS011;19885;42.208;24.952;2022-09-13T08:26:01;1.40;;;1.30;;
33553;SDS011;19885;42.208;24.952;2022-09-13T08:28:27;2.15;;;1.77;;
33553;SDS011;19885;42.208;24.952;2022-09-13T08:30:54;1.92;;;1.50;;
33553;SDS011;19885;42.208;24.952;2022-09-13T08:33:19;3.20;;;1.50;;
33553;SDS011;19885;42.208;24.952;2022-09-13T08:35:48;1.33;;;1.23;;
33553;SDS011;19885;42.208;24.952;2022-09-13T08:38:15;1.17;;;1.08;;
33553;SDS011;19885;42.208;24.952;2022-09-13T08:40:42;1.33;;;1.23;;
33553;SDS011;19885;42.208;24.952;2022-09-13T08:45:48;1.83;;;1.17;;
33553;SDS011;19885;42.208;24.952;2022-09-13T08:48:17;1.00;;;0.90;;
33553;SDS011;19885;42.208;24.952;2022-09-13T08:50:47;1.85;;;1.35;;
33553;SDS011;19885;42.208;24.952;2022-09-13T08:53:18;0.98;;;0.95;;
33553;SDS011;19885;42.208;24.952;2022-09-13T08:56:05;1.33;;;1.10;;
33553;SDS011;19885;42.208;24.952;2022-09-13T09:06:24;2.55;;;1.10;;
33553;SDS011;19885;42.208;24.952;2022-09-13T09:12:05;1.30;;;1.17;;
33553;SDS011;19885;42.208;24.952;2022-09-13T09:14:43;1.45;;;1.25;;
33553;SDS011;19885;42.208;24.952;2022-09-13T09:17:22;1.92;;;1.45;;
33553;SDS011;19885;42.208;24.952;2022-09-13T09:20:02;2.13;;;1.23;;
33553;SDS011;19885;42.208;24.952;2022-09-13T09:22:40;1.50;;;1.05;;
33553;SDS011;19885;42.208;24.952;2022-09-13T09:25:07;0.98;;;0.88;;
33553;SDS011;19885;42.208;24.952;2022-09-13T09:27:35;0.98;;;0.90;;
33553;SDS011;19885;42.208;24.952;2022-09-13T09:30:00;8.68;;;1.25;;
33553;SDS011;19885;42.208;24.952;2022-09-13T09:38:36;0.75;;;0.75;;
33553;SDS011;19885;42.208;24.952;2022-09-13T09:40:42;2.35;;;1.52;;
33553;SDS011;19885;42.208;24.952;2022-09-13T09:43:16;1.33;;;0.93;;
33553;SDS011;19885;42.208;24.952;2022-09-13T09:45:59;1.60;;;1.40;;
33553;SDS011;19885;42.208;24.952;2022-09-13T09:48:28;3.40;;;1.88;;
33553;SDS011;19885;42.208;24.952;2022-09-13T09:51:00;2.28;;;1.60;;
33553;SDS011;19885;42.208;24.952;2022-09-13T09:53:32;1.95;;;1.15;;
33553;SDS011;19885;42.208;24.952;2022-09-13T09:58:43;1.20;;;1.10;;
33553;SDS011;19885;42.208;24.952;2022-09-13T10:01:52;1.33;;;1.23;;
33553;SDS011;19885;42.208;24.952;2022-09-13T10:06:44;0.70;;;0.70;;
33553;SDS011;19885;42.208;24.952;2022-09-13T10:09:18;1.48;;;1.38;;
33553;SDS011;19885;42.208;24.952;2022-09-13T10:17:16;2.72;;;1.17;;
33553;SDS011;19885;42.208;24.952;2022-09-13T10:19:52;1.17;;;1.08;;
33553;SDS011;19885;42.208;24.952;2022-09-13T10:22:18;4.25;;;1.40;;
33553;SDS011;19885;42.208;24.952;2022-09-13T10:24:44;1.05;;;0.90;;
33553;SDS011;19885;42.208;24.952;2022-09-13T10:27:29;1.02;;;0.95;;
33553;SDS011;19885;42.208;24.952;2022-09-13T10:29:55;1.48;;;0.98;;
33553;SDS011;19885;42.208;24.952;2022-09-13T10:32:24;1.10;;;0.95;;
33553;SDS011;19885;42.208;24.952;2022-09-13T10:34:52;1.67;;;0.90;;
33553;SDS011;19885;42.208;24.952;2022-09-13T10:37:21;3.33;;;1.27;;
33553;SDS011;19885;42.208;24.952;2022-09-13T10:40:00;16.85;;;1.50;;
33553;SDS011;19885;42.208;24.952;2022-09-13T10:42:41;1.20;;;1.10;;
33553;SDS011;19885;42.208;24.952;2022-09-13T10:45:19;1.33;;;1.23;;
33553;SDS011;19885;42.208;24.952;2022-09-13T10:47:48;12.43;;;2.70;;
33553;SDS011;19885;42.208;24.952;2022-09-13T10:52:51;1.00;;;1.00;;
33553;SDS011;19885;42.208;24.952;2022-09-13T11:09:32;1.52;;;1.15;;
33553;SDS011;19885;42.208;24.952;2022-09-13T11:14:53;2.78;;;1.02;;
33553;SDS011;19885;42.208;24.952;2022-09-13T11:31:20;1.20;;;0.80;;
33553;SDS011;19885;42.208;24.952;2022-09-13T11:33:55;1.40;;;1.30;;
33553;SDS011;19885;42.208;24.952;2022-09-13T11:37:03;1.85;;;1.17;;
33553;SDS011;19885;42.208;24.952;2022-09-13T11:48:25;0.98;;;0.98;;
33553;SDS011;19885;42.208;24.952;2022-09-13T11:59:32;2.35;;;1.33;;
33553;SDS011;19885;42.208;24.952;2022-09-13T12:02:00;1.08;;;1.00;;
33553;SDS011;19885;42.208;24.952;2022-09-13T12:07:36;1.95;;;1.30;;
33553;SDS011;19885;42.208;24.952;2022-09-13T12:10:12;0.60;;;0.60;;
33553;SDS011;19885;42.208;24.952;2022-09-13T12:12:42;0.77;;;0.77;;
33553;SDS011;19885;42.208;24.952;2022-09-13T12:15:14;0.75;;;0.75;;
33553;SDS011;19885;42.208;24.952;2022-09-13T12:17:53;3.45;;;1.10;;
33553;SDS011;19885;42.208;24.952;2022-09-13T12:20:29;0.73;;;0.60;;
33553;SDS011;19885;42.208;24.952;2022-09-13T12:23:13;1.38;;;0.90;;
33553;SDS011;19885;42.208;24.952;2022-09-13T12:28:23;2.03;;;1.05;;
33553;SDS011;19885;42.208;24.952;2022-09-13T12:31:04;1.10;;;0.90;;
33553;SDS011;19885;42.208;24.952;2022-09-13T12:33:37;1.83;;;1.02;;
33553;SDS011;19885;42.208;24.952;2022-09-13T12:38:48;1.65;;;1.20;;
33553;SDS011;19885;42.208;24.952;2022-09-13T12:47:15;1.75;;;1.08;;
33553;SDS011;19885;42.208;24.952;2022-09-13T12:55:36;0.60;;;0.60;;
33553;SDS011;19885;42.208;24.952;2022-09-13T12:58:22;1.73;;;0.73;;
33553;SDS011;19885;42.208;24.952;2022-09-13T13:08:53;0.65;;;0.65;;
33553;SDS011;19885;42.208;24.952;2022-09-13T13:11:23;0.98;;;0.85;;
33553;SDS011;19885;42.208;24.952;2022-09-13T13:14:01;1.10;;;1.00;;
33553;SDS011;19885;42.208;24.952;2022-09-13T13:16:39;5.85;;;1.40;;
33553;SDS011;19885;42.208;24.952;2022-09-13T13:19:26;1.90;;;1.08;;
33553;SDS011;19885;42.208;24.952;2022-09-13T13:27:54;1.38;;;0.90;;
33553;SDS011;19885;42.208;24.952;2022-09-13T13:30:33;1.23;;;1.08;;
33553;SDS011;19885;42.208;24.952;2022-09-13T13:33:19;0.73;;;0.68;;
33553;SDS011;19885;42.208;24.952;2022-09-13T13:35:50;0.80;;;0.80;;
33553;SDS011;19885;42.208;24.952;2022-09-13T13:38:35;0.57;;;0.57;;
33553;SDS011;19885;42.208;24.952;2022-09-13T13:41:17;1.05;;;0.98;;
33553;SDS011;19885;42.208;24.952;2022-09-13T13:43:59;1.15;;;1.05;;
33553;SDS011;19885;42.208;24.952;2022-09-13T13:46:30;3.65;;;0.90;;
33553;SDS011;19885;42.208;24.952;2022-09-13T13:59:53;0.65;;;0.60;;
33553;SDS011;19885;42.208;24.952;2022-09-13T14:02:23;2.10;;;0.90;;
33553;SDS011;19885;42.208;24.952;2022-09-13T14:05:02;1.25;;;1.10;;
33553;SDS011;19885;42.208;24.952;2022-09-13T14:07:48;0.85;;;0.70;;
33553;SDS011;19885;42.208;24.952;2022-09-13T14:10:41;10.88;;;1.25;;
33553;SDS011;19885;42.208;24.952;2022-09-13T14:16:08;2.88;;;1.13;;
33553;SDS011;19885;42.208;24.952;2022-09-13T14:18:39;0.80;;;0.77;;
33553;SDS011;19885;42.208;24.952;2022-09-13T14:21:25;1.20;;;0.80;;
33553;SDS011;19885;42.208;24.952;2022-09-13T14:24:06;1.10;;;0.90;;
33553;SDS011;19885;42.208;24.952;2022-09-13T14:26:32;4.00;;;0.90;;
33553;SDS011;19885;42.208;24.952;2022-09-13T14:28:57;0.90;;;0.90;;
33553;SDS011;19885;42.208;24.952;2022-09-13T14:31:23;1.52;;;0.98;;
33553;SDS011;19885;42.208;24.952;2022-09-13T14:33:48;2.72;;;0.80;;
33553;SDS011;19885;42.208;24.952;2022-09-13T14:36:15;2.25;;;0.73;;
33553;SDS011;19885;42.208;24.952;2022-09-13T14:38:48;0.70;;;0.70;;
33553;SDS011;19885;42.208;24.952;2022-09-13T14:41:19;4.80;;;0.90;;
33553;SDS011;19885;42.208;24.952;2022-09-13T14:43:47;0.75;;;0.75;;
33553;SDS011;19885;42.208;24.952;2022-09-13T14:46:16;0.95;;;0.85;;
33553;SDS011;19885;42.208;24.952;2022-09-13T14:51:42;0.70;;;0.70;;
33553;SDS011;19885;42.208;24.952;2022-09-13T14:54:18;0.88;;;0.65;;
33553;SDS011;19885;42.208;24.952;2022-09-13T14:57:02;0.90;;;0.85;;
33553;SDS011;19885;42.208;24.952;2022-09-13T14:59:35;0.70;;;0.70;;
33553;SDS011;19885;42.208;24.952;2022-09-13T15:02:45;1.33;;;0.98;;
33553;SDS011;19885;42.208;24.952;2022-09-13T15:04:56;2.00;;;0.85;;
33553;SDS011;19885;42.208;24.952;2022-09-13T15:07:36;0.93;;;0.93;;
33553;SDS011;19885;42.208;24.952;2022-09-13T15:10:07;1.75;;;1.15;;
33553;SDS011;19885;42.208;24.952;2022-09-13T15:12:55;0.60;;;0.60;;
33553;SDS011;19885;42.208;24.952;2022-09-13T15:18:04;1.52;;;0.70;;
33553;SDS011;19885;42.208;24.952;2022-09-13T15:23:23;5.63;;;0.88;;
33553;SDS011;19885;42.208;24.952;2022-09-13T15:25:56;0.80;;;0.80;;
33553;SDS011;19885;42.208;24.952;2022-09-13T15:28:31;0.85;;;0.75;;
33553;SDS011;19885;42.208;24.952;2022-09-13T15:31:01;0.75;;;0.70;;
33553;SDS011;19885;42.208;24.952;2022-09-13T15:33:28;0.63;;;0.60;;
33553;SDS011;19885;42.208;24.952;2022-09-13T15:41:35;0.82;;;0.73;;
33553;SDS011;19885;42.208;24.952;2022-09-13T15:44:02;6.60;;;0.93;;
33553;SDS011;19885;42.208;24.952;2022-09-13T15:46:30;0.63;;;0.50;;
33553;SDS011;19885;42.208;24.952;2022-09-13T15:48:57;1.25;;;1.15;;
33553;SDS011;19885;42.208;24.952;2022-09-13T15:51:25;1.88;;;1.55;;
33553;SDS011;19885;42.208;24.952;2022-09-13T15:53:51;1.98;;;1.55;;
33553;SDS011;19885;42.208;24.952;2022-09-13T15:56:21;0.82;;;0.82;;
33553;SDS011;19885;42.208;24.952;2022-09-13T15:58:52;1.73;;;1.40;;
33553;SDS011;19885;42.208;24.952;2022-09-13T16:01:17;1.20;;;1.10;;
33553;SDS011;19885;42.208;24.952;2022-09-13T16:03:43;0.85;;;0.80;;
33553;SDS011;19885;42.208;24.952;2022-09-13T16:06:09;1.02;;;0.80;;
33553;SDS011;19885;42.208;24.952;2022-09-13T16:08:35;3.75;;;1.27;;
33553;SDS011;19885;42.208;24.952;2022-09-13T16:11:01;1.10;;;0.82;;
33553;SDS011;19885;42.208;24.952;2022-09-13T16:13:27;2.42;;;1.20;;
33553;SDS011;19885;42.208;24.952;2022-09-13T16:15:52;2.88;;;1.30;;
33553;SDS011;19885;42.208;24.952;2022-09-13T16:18:18;2.10;;;0.98;;
33553;SDS011;19885;42.208;24.952;2022-09-13T16:20:43;6.05;;;1.08;;
33553;SDS011;19885;42.208;24.952;2022-09-13T16:23:09;2.78;;;1.20;;
33553;SDS011;19885;42.208;24.952;2022-09-13T16:25:35;2.33;;;1.02;;
33553;SDS011;19885;42.208;24.952;2022-09-13T16:28:03;2.60;;;1.63;;
33553;SDS011;19885;42.208;24.952;2022-09-13T16:30:30;2.60;;;1.50;;
33553;SDS011;19885;42.208;24.952;2022-09-13T16:32:57;9.70;;;1.70;;
33553;SDS011;19885;42.208;24.952;2022-09-13T16:35:25;5.00;;;1.42;;
33553;SDS011;19885;42.208;24.952;2022-09-13T16:37:55;2.25;;;1.63;;
33553;SDS011;19885;42.208;24.952;2022-09-13T16:40:21;3.75;;;1.30;;
33553;SDS011;19885;42.208;24.952;2022-09-13T16:42:47;5.93;;;1.52;;
33553;SDS011;19885;42.208;24.952;2022-09-13T16:45:13;5.18;;;1.60;;
33553;SDS011;19885;42.208;24.952;2022-09-13T16:47:39;5.60;;;1.92;;
33553;SDS011;19885;42.208;24.952;2022-09-13T16:50:05;1.88;;;1.67;;
33553;SDS011;19885;42.208;24.952;2022-09-13T16:52:31;4.18;;;1.60;;
33553;SDS011;19885;42.208;24.952;2022-09-13T16:54:59;7.20;;;1.65;;
33553;SDS011;19885;42.208;24.952;2022-09-13T16:57:25;3.45;;;1.60;;
33553;SDS011;19885;42.208;24.952;2022-09-13T16:59:53;4.40;;;1.75;;
33553;SDS011;19885;42.208;24.952;2022-09-13T17:02:22;7.18;;;1.80;;
33553;SDS011;19885;42.208;24.952;2022-09-13T17:04:48;5.00;;;1.70;;
33553;SDS011;19885;42.208;24.952;2022-09-13T17:07:14;5.28;;;1.90;;
33553;SDS011;19885;42.208;24.952;2022-09-13T17:09:39;4.18;;;2.25;;
33553;SDS011;19885;42.208;24.952;2022-09-13T17:12:08;3.63;;;1.70;;
33553;SDS011;19885;42.208;24.952;2022-09-13T17:14:36;7.68;;;2.05;;
33553;SDS011;19885;42.208;24.952;2022-09-13T17:17:03;2.15;;;1.67;;
33553;SDS011;19885;42.208;24.952;2022-09-13T17:19:29;2.42;;;1.80;;
33553;SDS011;19885;42.208;24.952;2022-09-13T17:22:00;6.63;;;2.28;;
33553;SDS011;19885;42.208;24.952;2022-09-13T17:24:27;4.60;;;2.10;;
33553;SDS011;19885;42.208;24.952;2022-09-13T17:26:54;3.67;;;1.83;;
33553;SDS011;19885;42.208;24.952;2022-09-13T17:29:21;3.60;;;2.50;;
33553;SDS011;19885;42.208;24.952;2022-09-13T17:31:48;3.50;;;1.97;;
33553;SDS011;19885;42.208;24.952;2022-09-13T17:34:15;5.47;;;2.40;;
33553;SDS011;19885;42.208;24.952;2022-09-13T17:36:40;10.60;;;2.70;;
33553;SDS011;19885;42.208;24.952;2022-09-13T17:39:07;11.03;;;2.97;;
33553;SDS011;19885;42.208;24.952;2022-09-13T17:41:33;10.37;;;3.97;;
33553;SDS011;19885;42.208;24.952;2022-09-13T17:44:00;7.60;;;3.03;;
33553;SDS011;19885;42.208;24.952;2022-09-13T17:46:26;8.30;;;4.33;;
33553;SDS011;19885;42.208;24.952;2022-09-13T17:48:54;5.37;;;2.90;;
33553;SDS011;19885;42.208;24.952;2022-09-13T17:51:22;8.57;;;3.50;;
33553;SDS011;19885;42.208;24.952;2022-09-13T17:53:50;4.97;;;3.17;;
33553;SDS011;19885;42.208;24.952;2022-09-13T17:56:25;4.83;;;3.23;;
33553;SDS011;19885;42.208;24.952;2022-09-13T17:59:02;6.90;;;2.70;;
33553;SDS011;19885;42.208;24.952;2022-09-13T18:01:29;6.33;;;3.50;;
33553;SDS011;19885;42.208;24.952;2022-09-13T18:03:54;5.93;;;4.00;;
33553;SDS011;19885;42.208;24.952;2022-09-13T18:06:20;11.37;;;3.33;;
33553;SDS011;19885;42.208;24.952;2022-09-13T18:08:46;5.83;;;3.27;;
33553;SDS011;19885;42.208;24.952;2022-09-13T18:11:13;9.37;;;3.47;;
33553;SDS011;19885;42.208;24.952;2022-09-13T18:13:42;8.63;;;3.83;;
33553;SDS011;19885;42.208;24.952;2022-09-13T18:16:11;13.93;;;4.37;;
33553;SDS011;19885;42.208;24.952;2022-09-13T18:18:38;9.53;;;4.00;;
33553;SDS011;19885;42.208;24.952;2022-09-13T18:21:04;18.33;;;5.70;;